PDT,Max TemperatureF,Mean TemperatureF,Min TemperatureF,Max Dew PointF,MeanDew PointF,Min DewpointF,Max Humidity, Mean Humidity, Min Humidity, Max Sea Level PressureIn, Mean Sea Level PressureIn, Min Sea Level PressureIn, Max VisibilityMiles, Mean VisibilityMiles, Min VisibilityMiles, Max Wind SpeedMPH, Mean Wind SpeedMPH, Max Gust SpeedMPH,PrecipitationIn, CloudCover, Events, WindDirDegrees
2012-10-1,87,64,41,31,26,20,55,26,10,30.25,30.13,30.05,10,10,10,9,5,,0.00,0,,64
2012-10-2,90,64,39,28,23,17,57,28,8,30.07,29.98,29.89,10,10,10,8,2,,0.00,0,,242
2012-10-3,81,62,45,25,15,1,44,18,8,30.05,29.99,29.93,10,10,10,17,7,,0.00,0,,31
2012-10-4,84,60,37,25,13,-2,37,16,9,30.13,30.04,29.95,10,10,10,23,8,31,0.00,0,,315
2012-10-5,78,59,43,30,19,7,35,21,12,30.14,30.06,30.01,10,10,10,13,6,,0.00,0,,53
2012-10-6,73,60,46,19,14,6,26,18,11,30.12,30.04,29.96,10,10,10,18,9,23,0.00,0,,23
2012-10-7,73,56,39,13,7,3,32,15,8,30.10,30.00,29.91,10,10,8,13,7,,0.00,0,,28
2012-10-8,75,52,30,27,11,4,40,21,7,30.02,29.94,29.87,10,10,9,9,4,,0.00,0,,123
2012-10-9,73,52,33,28,23,17,52,31,15,30.01,29.93,29.88,10,10,7,9,4,,0.00,0,,76
2012-10-10,78,62,46,36,27,15,44,28,15,29.97,29.88,29.78,10,7,1,13,6,18,0.00,2,Rain,156
2012-10-11,73,54,37,48,36,27,80,54,29,29.93,29.86,29.79,10,7,2,9,5,,0.00,3,Rain,112
2012-10-12,71,60,51,51,44,23,97,64,22,30.03,29.91,29.83,10,10,6,14,5,24,0.09,3,Rain,180
2012-10-13,72,55,39,39,34,27,76,50,28,30.26,30.20,30.06,10,10,10,8,4,,0.00,0,,102
2012-10-14,75,54,33,39,34,28,82,53,21,30.33,30.20,30.08,10,10,10,8,3,,0.00,0,,122
2012-10-15,77,58,42,36,34,29,70,45,19,30.15,30.06,29.98,10,10,10,8,4,,0.00,1,,233
2012-10-16,80,62,45,48,33,16,60,36,16,30.09,29.96,29.86,10,10,10,20,9,31,0.00,2,,360
2012-10-17,69,52,35,26,20,15,54,30,15,30.23,30.15,30.10,10,10,10,14,6,,0.00,0,,22
2012-10-18,72,50,28,25,16,10,58,32,9,30.30,30.20,30.10,10,10,10,7,3,,0.00,0,,246
2012-10-19,80,54,30,26,22,17,59,32,12,30.16,30.01,29.85,10,10,10,13,4,18,0.00,0,,210
2012-10-20,75,57,39,36,25,18,65,32,13,29.85,29.76,29.67,10,10,10,21,7,30,0.00,0,Rain,296
2012-10-21,68,50,33,26,21,8,64,33,11,29.83,29.75,29.69,10,10,10,22,6,24,0.00,1,Rain,270
2012-10-22,55,42,30,41,31,19,93,61,40,29.80,29.68,29.61,10,10,10,25,8,33,0.08,5,Rain,242
2012-10-23,50,40,28,32,26,22,79,58,35,29.99,29.91,29.79,10,10,10,15,6,,0.00,7,Rain,224
2012-10-24,52,36,21,32,26,18,91,69,37,30.18,30.07,29.99,10,10,10,20,4,29,0.00,5,Rain,289
2012-10-25,51,42,30,34,29,22,92,68,36,30.43,30.31,30.19,10,10,10,13,5,,0.01,4,Rain,39
2012-10-26,55,36,18,27,22,15,88,58,29,30.48,30.35,30.25,10,10,10,10,3,,0.00,0,,194
2012-10-27,66,42,21,33,25,15,81,54,28,30.27,30.21,30.14,10,10,10,7,2,,0.00,0,,90
2012-10-28,68,47,26,35,29,22,85,57,23,30.19,30.13,30.05,10,10,10,7,3,,0.00,0,,87
2012-10-29,73,50,28,33,26,21,82,49,14,30.24,30.15,30.10,10,10,10,9,3,,0.00,0,,179
2012-10-30,75,50,27,28,22,17,78,43,12,30.22,30.09,29.99,10,10,10,9,3,,0.00,0,,312
2012-10-31,66,48,30,31,24,18,66,44,17,30.04,29.96,29.89,10,10,10,9,4,,0.00,0,,190